createdAt,value
2023-01-26T00:01:19.421Z,17.17
2023-01-26T00:03:47.148Z,17.20
2023-01-26T00:06:17.035Z,17.20
2023-01-26T00:08:47.720Z,17.67
2023-01-26T00:11:17.729Z,16.57
2023-01-26T00:13:45.513Z,16.20
2023-01-26T00:16:14.705Z,16.73
2023-01-26T00:18:43.040Z,17.57
2023-01-26T00:21:14.424Z,15.97
2023-01-26T00:23:42.410Z,16.80
2023-01-26T00:26:13.209Z,17.30
2023-01-26T00:28:40.723Z,16.67
2023-01-26T00:31:12.909Z,16.17
2023-01-26T00:33:40.479Z,17.47
2023-01-26T00:36:11.626Z,16.83
2023-01-26T00:38:40.883Z,17.67
2023-01-26T00:41:09.925Z,16.00
2023-01-26T00:43:37.225Z,16.67
2023-01-26T00:46:04.796Z,18.27
2023-01-26T00:48:32.339Z,17.67
2023-01-26T00:51:00.703Z,17.90
2023-01-26T00:53:28.670Z,17.37
2023-01-26T00:55:58.002Z,16.23
2023-01-26T00:58:25.815Z,15.83
2023-01-26T01:00:53.863Z,16.07
2023-01-26T01:03:21.199Z,15.27
2023-01-26T01:05:48.802Z,15.43
2023-01-26T01:08:16.148Z,16.43
2023-01-26T01:10:43.705Z,14.53
2023-01-26T01:13:11.439Z,15.77
2023-01-26T01:15:40.614Z,15.40
2023-01-26T01:18:07.861Z,15.97
2023-01-26T01:20:35.170Z,14.23
2023-01-26T01:23:03.064Z,13.90
2023-01-26T01:25:30.574Z,15.17
2023-01-26T01:27:57.880Z,15.60
2023-01-26T01:30:25.133Z,14.27
2023-01-26T01:32:53.417Z,14.63
2023-01-26T01:35:20.755Z,14.83
2023-01-26T01:37:48.736Z,14.10
2023-01-26T01:40:16.189Z,13.83
2023-01-26T01:42:48.319Z,14.33
2023-01-26T01:45:28.275Z,13.07
2023-01-26T01:47:59.074Z,13.57
2023-01-26T01:50:27.706Z,13.17
2023-01-26T01:52:56.008Z,13.30
2023-01-26T01:55:25.486Z,13.27
2023-01-26T01:58:00.129Z,11.93
2023-01-26T02:00:28.194Z,10.90
2023-01-26T02:03:20.884Z,10.77
2023-01-26T02:06:14.640Z,11.37
2023-01-26T02:08:51.777Z,11.07
2023-01-26T02:11:36.294Z,9.97
2023-01-26T02:14:08.707Z,10.53
2023-01-26T02:16:36.603Z,9.57
2023-01-26T02:19:05.813Z,9.93
2023-01-26T02:21:33.411Z,10.10
2023-01-26T02:24:08.223Z,9.40
2023-01-26T02:26:37.489Z,8.50
2023-01-26T02:29:09.281Z,9.20
2023-01-26T02:31:41.458Z,8.70
2023-01-26T02:34:09.542Z,10.07
2023-01-26T02:36:37.180Z,8.90
2023-01-26T02:39:54.355Z,8.77
2023-01-26T02:42:41.625Z,9.00
2023-01-26T02:45:12.649Z,8.87
2023-01-26T02:47:40.478Z,9.47
2023-01-26T02:50:09.856Z,9.50
2023-01-26T02:52:38.490Z,8.90
2023-01-26T02:55:22.724Z,8.67
2023-01-26T02:57:55.936Z,8.17
2023-01-26T03:00:27.025Z,9.23
2023-01-26T03:02:58.127Z,8.27
2023-01-26T03:05:27.567Z,8.07
2023-01-26T03:07:55.920Z,8.63
2023-01-26T03:10:26.971Z,8.30
2023-01-26T03:12:54.494Z,7.50
2023-01-26T03:15:40.559Z,8.17
2023-01-26T03:18:30.099Z,7.97
2023-01-26T03:21:21.680Z,7.73
2023-01-26T03:24:08.414Z,8.30
2023-01-26T03:26:54.275Z,8.10
2023-01-26T03:29:22.140Z,7.43
2023-01-26T03:31:49.842Z,7.77
2023-01-26T03:34:18.082Z,7.10
2023-01-26T03:36:47.779Z,7.07
2023-01-26T03:39:35.801Z,7.70
2023-01-26T03:42:24.235Z,7.73
2023-01-26T03:45:10.328Z,7.03
2023-01-26T03:47:58.578Z,6.90
2023-01-26T03:50:44.418Z,7.00
2023-01-26T03:53:39.798Z,6.63
2023-01-26T03:56:37.455Z,7.03
2023-01-26T03:59:15.480Z,7.30
2023-01-26T04:02:05.621Z,6.53
2023-01-26T04:04:52.674Z,7.70
2023-01-26T04:07:42.753Z,7.13
2023-01-26T04:10:10.798Z,7.27
2023-01-26T04:12:38.269Z,7.70
2023-01-26T04:15:35.962Z,7.90
2023-01-26T04:18:26.704Z,7.53
2023-01-26T04:21:13.678Z,8.13
2023-01-26T04:23:43.633Z,8.57
2023-01-26T04:26:11.350Z,9.40
2023-01-26T04:28:39.192Z,8.40
2023-01-26T04:31:06.681Z,8.80
2023-01-26T04:33:36.525Z,8.73
2023-01-26T04:36:05.772Z,8.97
2023-01-26T04:38:34.551Z,7.73
2023-01-26T04:41:02.178Z,7.97
2023-01-26T04:43:33.731Z,8.53
2023-01-26T04:46:06.056Z,7.47
2023-01-26T04:48:35.499Z,7.60
2023-01-26T04:51:05.956Z,8.37
2023-01-26T04:53:33.860Z,7.57
2023-01-26T04:56:01.269Z,8.10
2023-01-26T04:58:30.322Z,7.27
2023-01-26T05:00:58.503Z,7.70
2023-01-26T05:03:26.540Z,8.30
2023-01-26T05:05:55.003Z,8.80
2023-01-26T05:08:24.991Z,8.43
2023-01-26T05:10:52.379Z,8.27
2023-01-26T05:13:26.328Z,6.80
2023-01-26T05:16:04.683Z,8.97
2023-01-26T05:18:58.133Z,8.20
2023-01-26T05:21:45.845Z,8.43
2023-01-26T05:24:13.900Z,8.73
2023-01-26T05:26:44.224Z,8.47
2023-01-26T05:29:18.042Z,9.43
2023-01-26T05:31:46.227Z,9.77
2023-01-26T05:34:13.738Z,9.00
2023-01-26T05:36:41.096Z,10.90
2023-01-26T05:39:09.072Z,9.87
2023-01-26T05:41:36.529Z,9.23
2023-01-26T05:44:19.102Z,10.30
2023-01-26T05:46:53.833Z,9.13
2023-01-26T05:49:21.120Z,9.83
2023-01-26T05:51:48.490Z,9.73
2023-01-26T05:54:16.185Z,8.90
2023-01-26T05:56:43.522Z,8.57
2023-01-26T05:59:11.255Z,9.10
2023-01-26T06:01:39.353Z,9.47
2023-01-26T06:04:08.594Z,9.57
2023-01-26T06:06:42.377Z,9.33
2023-01-26T06:09:22.685Z,8.53
2023-01-26T06:12:18.441Z,7.20
2023-01-26T06:15:07.532Z,6.93
2023-01-26T06:17:39.524Z,7.73
2023-01-26T06:20:10.309Z,8.20
2023-01-26T06:22:37.798Z,8.37
2023-01-26T06:25:05.414Z,8.50
2023-01-26T06:27:34.134Z,7.57
2023-01-26T06:30:05.349Z,8.37
2023-01-26T06:32:32.797Z,8.77
2023-01-26T06:35:00.801Z,8.73
2023-01-26T06:37:28.145Z,9.10
2023-01-26T06:39:55.477Z,8.57
2023-01-26T06:42:23.753Z,8.13
2023-01-26T06:44:51.840Z,8.37
2023-01-26T06:47:19.278Z,8.97
2023-01-26T06:49:47.111Z,10.27
2023-01-26T06:52:28.153Z,9.17
2023-01-26T06:55:01.439Z,9.27
2023-01-26T06:57:50.042Z,9.00
2023-01-26T07:00:54.822Z,8.53
2023-01-26T07:03:29.590Z,7.77
2023-01-26T07:05:57.649Z,7.27
2023-01-26T07:08:24.987Z,7.60
2023-01-26T07:10:52.536Z,7.73
2023-01-26T07:13:20.497Z,8.73
2023-01-26T07:15:47.746Z,8.23
2023-01-26T07:18:15.502Z,7.57
2023-01-26T07:20:43.216Z,8.00
2023-01-26T07:23:11.177Z,7.43
2023-01-26T07:25:38.501Z,7.87
2023-01-26T07:28:05.788Z,7.87
2023-01-26T07:30:33.090Z,7.80
2023-01-26T07:33:00.871Z,8.33
2023-01-26T07:35:29.745Z,7.87
2023-01-26T07:37:58.923Z,8.17
2023-01-26T07:40:26.311Z,8.10
2023-01-26T07:42:56.113Z,7.90
2023-01-26T07:45:54.059Z,8.63
2023-01-26T07:48:23.865Z,7.63
2023-01-26T07:50:51.432Z,7.53
2023-01-26T07:53:22.858Z,8.27
2023-01-26T07:55:50.537Z,7.97
2023-01-26T07:58:21.272Z,7.33
2023-01-26T08:00:48.669Z,9.03
2023-01-26T08:03:16.982Z,8.90
2023-01-26T08:05:44.374Z,7.67
2023-01-26T08:08:12.454Z,8.10
2023-01-26T08:10:40.723Z,8.23
2023-01-26T08:13:08.001Z,8.80
2023-01-26T08:15:35.621Z,7.97
2023-01-26T08:18:04.422Z,7.33
2023-01-26T08:20:32.615Z,7.47
2023-01-26T08:23:00.618Z,7.37
2023-01-26T08:25:28.238Z,7.00
2023-01-26T08:27:55.927Z,7.83
2023-01-26T08:30:24.066Z,7.40
2023-01-26T08:32:51.657Z,7.03
2023-01-26T08:35:19.025Z,6.73
2023-01-26T08:37:46.434Z,7.17
2023-01-26T08:40:14.220Z,7.40
2023-01-26T08:42:41.702Z,7.00
2023-01-26T08:45:09.773Z,7.20
2023-01-26T08:47:37.242Z,8.13
2023-01-26T08:50:05.107Z,7.40
2023-01-26T08:52:32.698Z,7.87
2023-01-26T08:55:01.145Z,7.07
2023-01-26T08:57:28.933Z,8.00
2023-01-26T08:59:56.332Z,8.67
2023-01-26T09:02:23.740Z,7.93
2023-01-26T09:04:51.207Z,7.93
2023-01-26T09:07:18.542Z,7.97
2023-01-26T09:09:45.979Z,8.37
2023-01-26T09:12:13.883Z,8.17
2023-01-26T09:14:41.863Z,9.00
2023-01-26T09:17:09.208Z,7.63
2023-01-26T09:19:36.738Z,8.60
2023-01-26T09:22:04.026Z,9.03
2023-01-26T09:24:31.518Z,9.37
2023-01-26T09:26:59.147Z,8.33
2023-01-26T09:29:26.475Z,9.50
2023-01-26T09:31:54.275Z,9.70
2023-01-26T09:34:21.677Z,9.47
2023-01-26T09:36:49.051Z,9.17
2023-01-26T09:39:17.033Z,9.20
2023-01-26T09:42:02.037Z,8.93
2023-01-26T09:44:41.665Z,8.77
2023-01-26T09:47:42.094Z,9.93
2023-01-26T09:50:15.133Z,8.33
2023-01-26T09:52:57.372Z,8.90
2023-01-26T09:55:25.592Z,9.53
2023-01-26T09:58:01.549Z,10.23
2023-01-26T10:00:43.594Z,9.03
2023-01-26T10:03:41.500Z,9.60
2023-01-26T10:06:27.730Z,9.07
2023-01-26T10:09:19.004Z,9.83
2023-01-26T10:11:51.718Z,9.30
2023-01-26T10:14:33.713Z,9.37
2023-01-26T10:17:06.028Z,9.33
2023-01-26T10:19:42.455Z,9.60
2023-01-26T10:22:20.316Z,9.50
2023-01-26T10:24:50.872Z,10.50
2023-01-26T10:27:18.948Z,10.20
2023-01-26T10:29:46.585Z,9.33
2023-01-26T10:32:17.754Z,10.17
2023-01-26T10:34:48.253Z,9.93
2023-01-26T10:37:26.383Z,9.57
2023-01-26T10:39:59.787Z,9.93
2023-01-26T10:42:30.547Z,10.03
2023-01-26T10:45:02.130Z,9.40
2023-01-26T10:47:30.605Z,8.50
2023-01-26T10:50:24.239Z,9.47
2023-01-26T10:53:03.204Z,9.97
2023-01-26T10:55:32.903Z,10.03
2023-01-26T10:58:01.295Z,10.13
2023-01-26T11:00:31.571Z,9.67
2023-01-26T11:03:14.269Z,10.70
2023-01-26T11:05:43.401Z,10.67
2023-01-26T11:08:35.344Z,10.93
2023-01-26T11:11:04.247Z,9.43
2023-01-26T11:13:31.678Z,10.73
2023-01-26T11:16:24.138Z,10.67
2023-01-26T11:19:03.273Z,11.37
2023-01-26T11:21:33.321Z,11.03
2023-01-26T11:24:08.399Z,10.57
2023-01-26T11:27:02.514Z,10.57
2023-01-26T11:30:09.026Z,10.53
2023-01-26T11:33:15.766Z,10.03
2023-01-26T11:35:54.577Z,11.30
2023-01-26T11:38:44.368Z,11.37
2023-01-26T11:41:30.909Z,10.23
2023-01-26T11:44:15.893Z,10.93
2023-01-26T11:47:05.449Z,11.80
2023-01-26T11:49:38.997Z,10.23
2023-01-26T11:52:06.476Z,9.67
2023-01-26T11:54:48.634Z,11.77
2023-01-26T11:57:34.324Z,8.67
2023-01-26T12:00:29.570Z,8.60
2023-01-26T12:03:06.267Z,9.23
2023-01-26T12:05:54.031Z,8.97
2023-01-26T12:08:29.395Z,9.50
2023-01-26T12:11:25.649Z,9.13
2023-01-26T12:14:15.752Z,11.57
2023-01-26T12:16:43.121Z,11.67
2023-01-26T12:19:28.911Z,11.80
2023-01-26T12:22:02.673Z,11.03
2023-01-26T12:25:08.150Z,10.53
2023-01-26T12:27:34.860Z,10.57
2023-01-26T12:30:30.793Z,10.07
2023-01-26T12:32:58.305Z,10.07
2023-01-26T12:35:48.848Z,9.93
2023-01-26T12:38:43.537Z,10.83
2023-01-26T12:41:29.087Z,11.27
2023-01-26T12:44:18.590Z,11.07
2023-01-26T12:46:56.550Z,11.50
2023-01-26T12:49:37.134Z,11.83
2023-01-26T12:52:40.074Z,11.20
2023-01-26T12:55:14.572Z,11.17
2023-01-26T12:57:50.393Z,11.20
2023-01-26T13:00:20.028Z,10.87
2023-01-26T13:02:52.205Z,11.43
2023-01-26T13:05:29.258Z,12.23
2023-01-26T13:07:56.675Z,11.13
2023-01-26T13:10:27.603Z,11.57
2023-01-26T13:13:26.469Z,11.03
2023-01-26T13:16:15.793Z,11.00
2023-01-26T13:18:54.672Z,12.27
2023-01-26T13:21:26.989Z,11.90
2023-01-26T13:23:54.515Z,11.73
2023-01-26T13:26:41.770Z,11.97
2023-01-26T13:29:24.758Z,11.13
2023-01-26T13:31:56.685Z,12.30
2023-01-26T13:34:36.758Z,12.00
2023-01-26T13:37:21.563Z,12.93
2023-01-26T13:39:55.558Z,12.13
2023-01-26T13:42:28.283Z,12.97
2023-01-26T13:45:02.913Z,12.10
2023-01-26T13:47:37.883Z,12.93
2023-01-26T13:50:32.090Z,13.80
2023-01-26T13:53:00.624Z,14.23
2023-01-26T13:55:31.461Z,13.00
2023-01-26T13:58:13.843Z,13.53
2023-01-26T14:00:41.945Z,13.47
2023-01-26T14:03:23.637Z,13.80
2023-01-26T14:06:06.235Z,14.63
2023-01-26T14:08:43.758Z,14.53
2023-01-26T14:11:23.718Z,13.43
2023-01-26T14:13:59.911Z,13.03
2023-01-26T14:16:35.784Z,13.17
2023-01-26T14:19:24.177Z,12.23
2023-01-26T14:22:03.738Z,13.03
2023-01-26T14:24:35.614Z,14.43
2023-01-26T14:27:04.201Z,12.43
2023-01-26T14:29:38.271Z,13.83
2023-01-26T14:32:15.601Z,13.73
2023-01-26T14:34:58.805Z,13.50
2023-01-26T14:37:27.339Z,14.40
2023-01-26T14:40:20.800Z,12.93
2023-01-26T14:42:52.736Z,14.90
2023-01-26T14:45:31.174Z,14.57
2023-01-26T14:48:07.617Z,14.20
2023-01-26T14:50:36.962Z,16.50
2023-01-26T14:53:05.712Z,15.77
2023-01-26T14:55:36.387Z,14.03
2023-01-26T14:58:19.188Z,16.30
2023-01-26T15:00:50.137Z,14.43
2023-01-26T15:03:24.697Z,14.93
2023-01-26T15:06:20.208Z,16.83
2023-01-26T15:08:58.474Z,18.43
2023-01-26T15:12:10.209Z,19.87
2023-01-26T15:14:59.372Z,15.63
2023-01-26T15:17:59.690Z,16.10
2023-01-26T15:20:27.308Z,13.80
2023-01-26T15:22:55.083Z,17.87
2023-01-26T15:25:33.316Z,17.80
2023-01-26T15:28:01.487Z,16.07
2023-01-26T15:30:32.533Z,14.73
2023-01-26T15:33:00.478Z,16.17
2023-01-26T15:35:32.101Z,14.47
2023-01-26T15:38:11.795Z,15.00
2023-01-26T15:40:39.709Z,15.07
2023-01-26T15:43:13.506Z,15.30
2023-01-26T15:46:01.939Z,14.77
2023-01-26T15:48:31.750Z,14.03
2023-01-26T15:50:59.121Z,15.07
2023-01-26T15:53:26.890Z,14.47
2023-01-26T15:55:55.900Z,17.93
2023-01-26T15:58:25.420Z,16.33
2023-01-26T16:00:53.545Z,15.47
2023-01-26T16:03:22.422Z,15.60
2023-01-26T16:05:50.309Z,15.63
2023-01-26T16:08:20.474Z,15.87
2023-01-26T16:10:50.250Z,14.70
2023-01-26T16:13:18.978Z,15.10
2023-01-26T16:15:48.993Z,16.07
2023-01-26T16:18:21.081Z,14.93
2023-01-26T16:20:49.571Z,15.97
2023-01-26T16:23:25.856Z,15.57
2023-01-26T16:25:53.594Z,15.37
2023-01-26T16:28:25.354Z,15.50
2023-01-26T16:30:52.811Z,16.53
2023-01-26T16:33:24.992Z,15.93
2023-01-26T16:35:54.540Z,15.30
2023-01-26T16:38:21.822Z,16.00
2023-01-26T16:40:49.723Z,16.90
2023-01-26T16:43:24.335Z,15.23
2023-01-26T16:45:53.264Z,15.50
2023-01-26T16:48:21.660Z,16.67
2023-01-26T16:50:53.142Z,15.13
2023-01-26T16:53:27.405Z,15.83
2023-01-26T16:55:55.317Z,14.67
2023-01-26T16:58:26.055Z,15.87
2023-01-26T17:00:55.147Z,16.63
2023-01-26T17:03:23.846Z,16.80
2023-01-26T17:05:51.237Z,15.53
2023-01-26T17:08:19.558Z,15.83
2023-01-26T17:11:01.177Z,15.80
2023-01-26T17:13:29.685Z,15.47
2023-01-26T17:15:58.367Z,17.43
2023-01-26T17:18:25.847Z,18.40
2023-01-26T17:20:53.506Z,17.17
2023-01-26T17:23:21.025Z,17.47
2023-01-26T17:25:48.910Z,17.67
2023-01-26T17:28:16.311Z,19.13
2023-01-26T17:30:43.699Z,18.13
2023-01-26T17:33:11.061Z,17.00
2023-01-26T17:35:38.658Z,17.70
2023-01-26T17:38:05.984Z,16.23
2023-01-26T17:40:33.419Z,17.00
2023-01-26T17:43:00.680Z,17.43
2023-01-26T17:45:28.630Z,17.03
2023-01-26T17:47:55.993Z,17.23
2023-01-26T17:50:23.497Z,17.37
2023-01-26T17:52:51.154Z,17.73
2023-01-26T17:55:18.774Z,16.87
2023-01-26T17:57:46.706Z,17.80
2023-01-26T18:00:15.907Z,18.67
2023-01-26T18:02:43.203Z,17.30
2023-01-26T18:05:11.039Z,16.80
2023-01-26T18:07:38.595Z,17.03
2023-01-26T18:10:06.681Z,16.80
2023-01-26T18:12:34.573Z,18.43
2023-01-26T18:15:01.872Z,17.67
2023-01-26T18:17:29.190Z,17.60
2023-01-26T18:19:56.590Z,17.90
2023-01-26T18:22:23.944Z,17.77
2023-01-26T18:24:52.642Z,18.87
2023-01-26T18:27:19.893Z,17.27
2023-01-26T18:29:47.554Z,16.43
2023-01-26T18:32:14.926Z,17.93
2023-01-26T18:34:43.449Z,18.00
2023-01-26T18:37:11.294Z,17.43
2023-01-26T18:39:38.610Z,16.27
2023-01-26T18:42:06.001Z,17.57
2023-01-26T18:44:33.489Z,17.17
2023-01-26T18:47:00.859Z,17.13
2023-01-26T18:49:28.232Z,18.17
2023-01-26T18:51:55.694Z,16.17
2023-01-26T18:54:24.310Z,16.20
2023-01-26T18:56:51.606Z,17.43
2023-01-26T18:59:18.950Z,15.33
2023-01-26T19:01:46.640Z,18.23
2023-01-26T19:04:16.617Z,17.37
2023-01-26T19:06:45.483Z,16.50
2023-01-26T19:09:12.886Z,17.57
2023-01-26T19:11:40.273Z,17.53
2023-01-26T19:14:08.249Z,17.20
2023-01-26T19:16:36.045Z,18.50
2023-01-26T19:19:04.914Z,19.03
2023-01-26T19:21:33.990Z,17.57
2023-01-26T19:24:06.522Z,18.67
2023-01-26T19:26:34.122Z,17.50
2023-01-26T19:29:01.658Z,17.70
2023-01-26T19:31:29.303Z,18.40
2023-01-26T19:34:01.817Z,18.70
2023-01-26T19:36:31.754Z,17.20
2023-01-26T19:38:59.557Z,18.40
2023-01-26T19:41:27.583Z,17.53
2023-01-26T19:43:55.297Z,16.60
2023-01-26T19:46:23.300Z,16.40
2023-01-26T19:48:50.724Z,17.70
2023-01-26T19:51:24.179Z,18.07
2023-01-26T19:53:55.105Z,18.27
2023-01-26T19:56:28.117Z,16.67
2023-01-26T19:58:59.056Z,17.50
2023-01-26T20:01:28.124Z,17.00
2023-01-26T20:04:01.454Z,19.50
2023-01-26T20:06:31.349Z,17.87
2023-01-26T20:08:59.747Z,17.77
2023-01-26T20:11:29.364Z,17.40
2023-01-26T20:13:58.283Z,16.57
2023-01-26T20:16:28.105Z,15.80
2023-01-26T20:18:57.393Z,16.30
2023-01-26T20:21:25.078Z,15.97
2023-01-26T20:23:55.482Z,17.47
2023-01-26T20:26:24.891Z,16.70
2023-01-26T20:28:54.013Z,16.93
2023-01-26T20:31:24.108Z,17.40
2023-01-26T20:33:53.416Z,17.33
2023-01-26T20:36:25.781Z,16.37
2023-01-26T20:38:54.494Z,15.97
2023-01-26T20:41:25.217Z,16.07
2023-01-26T20:44:01.097Z,15.43
2023-01-26T20:46:31.445Z,16.10
2023-01-26T20:48:59.029Z,16.40
2023-01-26T20:51:30.276Z,15.50
2023-01-26T20:53:58.169Z,16.40
2023-01-26T20:56:25.876Z,15.73
2023-01-26T20:58:54.351Z,15.43
2023-01-26T21:01:22.705Z,15.97
2023-01-26T21:03:51.897Z,16.67
2023-01-26T21:06:21.335Z,16.73
2023-01-26T21:08:52.339Z,17.60
2023-01-26T21:11:20.812Z,16.63
2023-01-26T21:13:48.703Z,17.27
2023-01-26T21:16:17.492Z,16.30
2023-01-26T21:18:46.279Z,16.50
2023-01-26T21:21:18.379Z,16.83
2023-01-26T21:23:47.064Z,16.80
2023-01-26T21:26:20.228Z,17.97
2023-01-26T21:28:51.754Z,15.93
2023-01-26T21:31:20.836Z,17.23
2023-01-26T21:33:49.295Z,16.90
2023-01-26T21:36:19.429Z,17.87
2023-01-26T21:38:50.760Z,17.03
2023-01-26T21:41:43.053Z,17.33
2023-01-26T21:44:16.013Z,16.03
2023-01-26T21:46:48.027Z,17.57
2023-01-26T21:49:16.361Z,17.43
2023-01-26T21:52:02.207Z,17.90
2023-01-26T21:54:30.130Z,16.57
2023-01-26T21:56:58.562Z,16.10
2023-01-26T21:59:28.231Z,17.17
2023-01-26T22:01:58.720Z,16.70
2023-01-26T22:04:32.897Z,17.60
2023-01-26T22:07:01.762Z,16.80
2023-01-26T22:09:30.463Z,18.37
2023-01-26T22:12:06.488Z,17.87
2023-01-26T22:14:34.522Z,18.43
2023-01-26T22:17:02.529Z,17.63
2023-01-26T22:19:30.054Z,18.10
2023-01-26T22:21:58.437Z,17.97
2023-01-26T22:24:26.021Z,18.60
2023-01-26T22:26:53.373Z,17.90
2023-01-26T22:29:21.149Z,17.73
2023-01-26T22:31:50.729Z,19.50
2023-01-26T22:34:18.407Z,17.70
2023-01-26T22:36:45.761Z,18.00
2023-01-26T22:39:13.974Z,17.03
2023-01-26T22:41:42.021Z,16.77
2023-01-26T22:44:10.821Z,17.20
2023-01-26T22:46:38.745Z,17.60
2023-01-26T22:49:07.203Z,17.73
2023-01-26T22:51:38.554Z,16.10
2023-01-26T22:54:06.809Z,15.43
2023-01-26T22:56:34.596Z,16.57
2023-01-26T22:59:02.716Z,17.27
2023-01-26T23:01:33.325Z,17.53
2023-01-26T23:04:02.150Z,17.13
2023-01-26T23:06:30.103Z,16.20
2023-01-26T23:09:02.143Z,16.30
2023-01-26T23:11:30.599Z,16.93
2023-01-26T23:14:00.548Z,15.93
2023-01-26T23:17:21.224Z,16.67
2023-01-26T23:19:50.011Z,15.70
2023-01-26T23:22:19.204Z,16.40
2023-01-26T23:25:07.446Z,16.73
2023-01-26T23:27:35.413Z,16.47
2023-01-26T23:30:03.643Z,16.50
2023-01-26T23:32:33.726Z,16.00
2023-01-26T23:35:02.983Z,16.00
2023-01-26T23:37:30.875Z,16.20
2023-01-26T23:40:02.319Z,17.77
2023-01-26T23:42:41.540Z,17.37
2023-01-26T23:45:18.337Z,18.23
2023-01-26T23:47:46.547Z,17.70
2023-01-26T23:50:17.382Z,16.97
2023-01-26T23:52:44.835Z,19.00
2023-01-26T23:55:14.942Z,17.13
2023-01-26T23:57:45.095Z,18.87
